To NAV CANADA Home Page Login to a new session Search on AWWS site Feedback and Comments Disclaimer Vers la page française équivalente Tips FAQ What's new on the site To the Forecasts and Observations / NOTAM section To "File a Flight Plan" website Publications and other links Update of the User's profile FIC Telephone Numbers My Weather Data Folder Route Weather Data Regional Weather Data Local Weather Data To the Forecasts and Observations / NOTAM section
Request Generated 03/28/2017 at 02:17:50 UTC . Weather information available at that time is displayed.

METAR/TAF

CHURCHILL/MB    (show WxCam)

METAR CYYQ 280200Z 33008KT 15SM IC FEW270 M18/M19 A3037 RMK CI1
SLP288=
METAR CYYQ 280100Z 32007KT 15SM IC FEW270 M17/M18 A3036 RMK CI1
SLP286=
METAR CYYQ 280000Z 32007KT 15SM IC SKC M15/M16 A3034 RMK SLP280=

TAF CYYQ 272339Z 2800/2824 34012KT P6SM FEW020
BECMG 2804/2806 32005KT
BECMG 2816/2818 20005KT
RMK NXT FCST BY 280600Z=
Your time UTC time
Weather data provided by Environment Canada and NAV CANADA